createdAt,value
2022-10-17T00:01:59.190Z,58.99
2022-10-17T00:04:49.053Z,59.08
2022-10-17T00:07:39.043Z,59.03
2022-10-17T00:10:28.992Z,58.99
2022-10-17T00:13:19.014Z,59.00
2022-10-17T00:16:10.681Z,58.94
2022-10-17T00:19:00.579Z,58.93
2022-10-17T00:21:51.222Z,58.95
2022-10-17T00:24:41.322Z,58.99
2022-10-17T00:27:31.171Z,58.99
2022-10-17T00:30:21.298Z,59.04
2022-10-17T00:33:11.921Z,58.93
2022-10-17T00:36:07.658Z,58.98
2022-10-17T00:38:59.603Z,58.98
2022-10-17T00:41:49.506Z,58.99
2022-10-17T00:45:20.785Z,58.86
2022-10-17T00:48:10.968Z,58.88
2022-10-17T00:51:00.981Z,58.93
2022-10-17T00:53:51.284Z,58.91
2022-10-17T00:56:41.198Z,58.84
2022-10-17T00:59:31.143Z,58.88
2022-10-17T01:02:22.282Z,58.93
2022-10-17T01:05:12.431Z,59.12
2022-10-17T01:08:02.316Z,59.00
2022-10-17T01:11:01.044Z,58.98
2022-10-17T01:13:53.491Z,58.89
2022-10-17T01:16:51.564Z,58.93
2022-10-17T01:19:58.466Z,58.86
2022-10-17T01:22:51.804Z,58.93
2022-10-17T01:25:48.964Z,58.91
2022-10-17T01:28:57.896Z,58.83
2022-10-17T01:31:51.018Z,58.89
2022-10-17T01:34:46.671Z,58.84
2022-10-17T01:37:42.752Z,58.84
2022-10-17T01:40:35.816Z,58.80
2022-10-17T01:43:28.212Z,58.81
2022-10-17T01:46:22.107Z,58.85
2022-10-17T01:49:13.128Z,58.77
2022-10-17T01:52:06.384Z,58.78
2022-10-17T01:54:59.160Z,58.76
2022-10-17T01:57:50.832Z,58.83
2022-10-17T02:00:42.138Z,58.84
2022-10-17T02:03:33.890Z,58.88
2022-10-17T02:06:23.788Z,58.74
2022-10-17T02:09:22.913Z,58.73
2022-10-17T02:12:24.366Z,58.75
2022-10-17T02:15:58.742Z,58.74
2022-10-17T02:19:16.089Z,58.72
2022-10-17T02:22:18.304Z,58.74
2022-10-17T02:25:14.274Z,58.74
2022-10-17T02:28:16.339Z,58.71
2022-10-17T02:31:10.117Z,58.75
2022-10-17T02:34:02.349Z,58.70
2022-10-17T02:36:54.867Z,58.74
2022-10-17T02:39:44.920Z,58.71
2022-10-17T02:42:34.936Z,58.80
2022-10-17T02:45:27.211Z,58.78
2022-10-17T02:48:19.816Z,58.71
2022-10-17T02:51:14.761Z,58.71
2022-10-17T02:54:09.404Z,58.72
2022-10-17T02:57:08.761Z,58.71
2022-10-17T03:00:00.006Z,58.68
2022-10-17T03:02:51.539Z,58.70
2022-10-17T03:05:41.476Z,58.72
2022-10-17T03:08:31.406Z,58.72
2022-10-17T03:11:21.634Z,58.69
2022-10-17T03:14:13.990Z,58.71
2022-10-17T03:17:04.278Z,58.69
2022-10-17T03:19:55.777Z,58.69
2022-10-17T03:22:45.732Z,58.78
2022-10-17T03:25:36.177Z,58.67
2022-10-17T03:28:27.404Z,58.70
2022-10-17T03:31:18.028Z,58.72
2022-10-17T03:34:08.593Z,58.70
2022-10-17T03:36:58.863Z,58.72
2022-10-17T03:39:49.689Z,58.82
2022-10-17T03:42:39.896Z,58.75
2022-10-17T03:45:30.099Z,58.72
2022-10-17T03:48:20.170Z,58.75
2022-10-17T03:51:10.987Z,58.70
2022-10-17T03:54:05.471Z,58.74
2022-10-17T03:57:00.304Z,58.71
2022-10-17T03:59:52.211Z,58.60
2022-10-17T04:02:44.461Z,58.63
2022-10-17T04:05:44.591Z,58.64
2022-10-17T04:08:34.921Z,58.63
2022-10-17T04:11:37.131Z,58.68
2022-10-17T04:14:27.171Z,58.60
2022-10-17T04:17:17.443Z,58.72
2022-10-17T04:20:10.368Z,58.69
2022-10-17T04:23:00.992Z,58.64
2022-10-17T04:25:51.201Z,58.67
2022-10-17T04:28:41.264Z,58.64
2022-10-17T04:31:31.450Z,58.66
2022-10-17T04:34:27.428Z,58.65
2022-10-17T04:37:17.641Z,58.68
2022-10-17T04:40:11.424Z,58.65
2022-10-17T04:43:01.847Z,58.70
2022-10-17T04:45:58.399Z,58.73
2022-10-17T04:48:48.370Z,58.70
2022-10-17T04:51:38.480Z,58.63
2022-10-17T04:54:41.729Z,58.60
2022-10-17T04:57:36.096Z,58.62
2022-10-17T05:00:33.297Z,58.62
2022-10-17T05:03:43.713Z,58.62
2022-10-17T05:06:34.841Z,58.59
2022-10-17T05:09:47.991Z,58.60
2022-10-17T05:12:38.228Z,58.57
2022-10-17T05:15:54.509Z,58.57
2022-10-17T05:18:45.919Z,58.56
2022-10-17T05:21:42.534Z,58.58
2022-10-17T05:24:50.087Z,58.69
2022-10-17T05:27:40.493Z,58.66
2022-10-17T05:30:37.468Z,58.62
2022-10-17T05:33:29.468Z,58.58
2022-10-17T05:36:24.461Z,58.61
2022-10-17T05:39:22.583Z,58.64
2022-10-17T05:42:13.258Z,58.60
2022-10-17T05:45:03.473Z,58.66
2022-10-17T05:47:53.924Z,58.62
2022-10-17T05:50:44.433Z,58.65
2022-10-17T05:53:40.811Z,58.70
2022-10-17T05:56:34.061Z,58.65
2022-10-17T05:59:26.181Z,58.58
2022-10-17T06:02:37.305Z,58.64
2022-10-17T06:05:28.681Z,58.50
2022-10-17T06:08:19.493Z,58.59
2022-10-17T06:11:10.533Z,58.58
2022-10-17T06:14:02.644Z,58.58
2022-10-17T06:16:53.594Z,58.67
2022-10-17T06:19:47.129Z,58.65
2022-10-17T06:22:38.414Z,58.74
2022-10-17T06:25:34.026Z,58.82
2022-10-17T06:28:24.302Z,58.90
2022-10-17T06:31:16.989Z,58.90
2022-10-17T06:34:07.102Z,59.01
2022-10-17T06:39:53.465Z,59.15
2022-10-17T06:42:45.712Z,59.21
2022-10-17T06:45:54.646Z,59.20
2022-10-17T06:49:02.024Z,59.27
2022-10-17T06:51:58.491Z,59.33
2022-10-17T06:55:08.081Z,59.34
2022-10-17T06:58:12.682Z,59.35
2022-10-17T07:01:20.153Z,59.13
2022-10-17T07:04:11.419Z,58.74
2022-10-17T07:07:02.580Z,58.42
2022-10-17T07:09:55.490Z,57.90
2022-10-17T07:12:46.076Z,57.63
2022-10-17T07:15:37.275Z,57.47
2022-10-17T07:18:27.245Z,57.31
2022-10-17T07:21:18.004Z,57.30
2022-10-17T07:24:08.111Z,57.24
2022-10-17T07:26:58.359Z,57.21
2022-10-17T07:29:48.589Z,57.26
2022-10-17T07:32:51.734Z,57.30
2022-10-17T07:35:41.724Z,57.36
2022-10-17T07:38:33.684Z,57.40
2022-10-17T07:41:23.903Z,57.40
2022-10-17T07:44:14.882Z,57.42
2022-10-17T07:47:08.443Z,57.42
2022-10-17T07:49:59.776Z,57.49
2022-10-17T07:52:49.661Z,57.55
2022-10-17T07:55:40.667Z,57.62
2022-10-17T07:58:31.001Z,57.62
2022-10-17T08:01:20.917Z,57.67
2022-10-17T08:04:28.100Z,57.71
2022-10-17T08:07:25.315Z,57.79
2022-10-17T08:10:19.364Z,57.87
2022-10-17T08:13:09.756Z,57.87
2022-10-17T08:16:02.188Z,57.91
2022-10-17T08:18:52.393Z,57.92
2022-10-17T08:21:44.332Z,57.89
2022-10-17T08:24:34.627Z,57.98
2022-10-17T08:27:28.393Z,57.87
2022-10-17T08:30:18.917Z,57.94
2022-10-17T08:33:08.975Z,58.01
2022-10-17T08:36:00.950Z,57.91
2022-10-17T08:38:53.008Z,57.92
2022-10-17T08:41:54.276Z,57.94
2022-10-17T08:44:52.027Z,58.17
2022-10-17T08:47:43.568Z,58.03
2022-10-17T08:50:37.260Z,58.21
2022-10-17T08:53:31.346Z,58.09
2022-10-17T08:56:44.149Z,58.07
2022-10-17T08:59:35.024Z,58.03
2022-10-17T09:02:45.934Z,57.99
2022-10-17T09:05:55.468Z,58.01
2022-10-17T09:08:56.179Z,57.95
2022-10-17T09:11:58.149Z,57.95
2022-10-17T09:15:10.595Z,57.99
2022-10-17T09:18:03.911Z,57.94
2022-10-17T09:20:55.496Z,57.91
2022-10-17T09:23:49.459Z,58.04
2022-10-17T09:26:40.882Z,58.10
2022-10-17T09:29:36.972Z,58.02
2022-10-17T09:32:29.906Z,58.00
2022-10-17T09:35:21.287Z,58.03
2022-10-17T09:38:18.736Z,58.01
2022-10-17T09:44:33.041Z,57.98
2022-10-17T09:47:29.595Z,57.96
2022-10-17T09:50:25.165Z,57.97
2022-10-17T09:53:21.087Z,58.09
2022-10-17T09:56:15.471Z,58.11
2022-10-17T09:59:07.564Z,58.22
2022-10-17T10:02:27.330Z,58.15
2022-10-17T10:05:20.473Z,58.20
2022-10-17T10:08:17.497Z,58.18
2022-10-17T10:11:13.467Z,58.24
2022-10-17T10:14:13.200Z,58.36
2022-10-17T10:17:05.425Z,58.30
2022-10-17T10:19:55.705Z,58.33
2022-10-17T10:22:45.893Z,58.19
2022-10-17T10:25:36.916Z,58.20
2022-10-17T10:28:29.473Z,58.25
2022-10-17T10:31:28.293Z,58.24
2022-10-17T10:34:21.695Z,58.23
2022-10-17T10:37:19.982Z,58.23
2022-10-17T10:40:19.017Z,58.20
2022-10-17T10:43:21.273Z,58.27
2022-10-17T10:46:20.218Z,58.37
2022-10-17T10:49:30.146Z,58.41
2022-10-17T10:52:29.636Z,58.48
2022-10-17T10:55:29.492Z,58.54
2022-10-17T10:58:32.771Z,58.58
2022-10-17T11:01:29.382Z,58.52
2022-10-17T11:04:29.977Z,58.42
2022-10-17T11:07:23.163Z,58.35
2022-10-17T11:10:19.070Z,58.32
2022-10-17T11:13:14.227Z,58.43
2022-10-17T11:16:26.055Z,58.36
2022-10-17T11:19:20.835Z,58.37
2022-10-17T11:22:15.109Z,58.35
2022-10-17T11:25:14.848Z,58.34
2022-10-17T11:28:13.304Z,58.34
2022-10-17T11:31:07.851Z,58.25
2022-10-17T11:34:01.600Z,58.30
2022-10-17T11:36:56.797Z,58.33
2022-10-17T11:39:50.619Z,58.32
2022-10-17T11:42:46.043Z,58.28
2022-10-17T11:45:40.733Z,58.30
2022-10-17T11:48:34.336Z,58.27
2022-10-17T11:54:37.866Z,58.24
2022-10-17T11:57:49.222Z,58.17
2022-10-17T12:00:50.265Z,58.19
2022-10-17T12:04:12.896Z,58.19
2022-10-17T12:07:12.690Z,58.19
2022-10-17T12:10:15.127Z,58.15
2022-10-17T12:13:57.419Z,58.14
2022-10-17T12:16:47.999Z,58.11
2022-10-17T12:19:38.501Z,58.06
2022-10-17T12:22:29.987Z,58.03
2022-10-17T12:25:22.947Z,58.01
2022-10-17T12:32:16.856Z,57.95
2022-10-17T12:35:18.892Z,57.90
2022-10-17T12:38:23.316Z,57.91
2022-10-17T12:41:13.845Z,57.93
2022-10-17T12:44:07.090Z,57.92
2022-10-17T12:47:07.515Z,57.90
2022-10-17T12:49:57.664Z,57.85
2022-10-17T12:53:01.685Z,57.86
2022-10-17T12:55:54.050Z,57.95
2022-10-17T12:58:47.009Z,57.92
2022-10-17T13:01:39.075Z,57.91
2022-10-17T13:04:29.154Z,57.88
2022-10-17T13:07:22.093Z,57.99
2022-10-17T13:10:22.653Z,57.98
2022-10-17T13:13:20.038Z,57.95
2022-10-17T13:16:10.265Z,58.04
2022-10-17T13:19:01.840Z,58.13
2022-10-17T13:21:55.785Z,58.05
2022-10-17T13:24:46.205Z,58.08
2022-10-17T13:27:37.291Z,58.12
2022-10-17T13:30:32.060Z,58.21
2022-10-17T13:33:37.378Z,58.22
2022-10-17T13:36:27.850Z,58.17
2022-10-17T13:39:32.396Z,58.24
2022-10-17T13:42:32.308Z,58.27
2022-10-17T13:45:28.594Z,58.25
2022-10-17T13:48:22.668Z,58.32
2022-10-17T13:51:13.603Z,58.24
2022-10-17T13:54:04.085Z,58.38
2022-10-17T13:56:58.298Z,58.36
2022-10-17T13:59:49.481Z,58.32
2022-10-17T14:02:42.120Z,58.34
2022-10-17T14:05:32.736Z,58.44
2022-10-17T14:08:23.821Z,58.46
2022-10-17T14:11:22.358Z,58.46
2022-10-17T14:14:19.170Z,58.45
2022-10-17T14:17:16.005Z,58.57
2022-10-17T14:20:40.877Z,58.63
2022-10-17T14:23:36.663Z,58.74
2022-10-17T14:26:27.099Z,58.69
2022-10-17T14:29:24.742Z,58.83
2022-10-17T14:32:15.010Z,58.82
2022-10-17T14:35:40.370Z,58.73
2022-10-17T14:38:27.830Z,58.68
2022-10-17T14:41:41.774Z,58.61
2022-10-17T14:44:35.061Z,58.60
2022-10-17T14:47:44.100Z,58.67
2022-10-17T14:50:35.834Z,58.52
2022-10-17T14:53:27.921Z,58.56
2022-10-17T14:56:25.775Z,58.59
2022-10-17T14:59:30.158Z,58.68
2022-10-17T15:02:30.123Z,58.76
2022-10-17T15:05:22.621Z,58.61
2022-10-17T15:08:14.719Z,58.94
2022-10-17T15:11:05.155Z,59.08
2022-10-17T15:13:55.681Z,59.09
2022-10-17T15:16:45.790Z,59.01
2022-10-17T15:19:35.781Z,59.05
2022-10-17T15:22:26.545Z,59.12
2022-10-17T15:25:17.198Z,59.13
2022-10-17T15:28:07.805Z,59.12
2022-10-17T15:31:02.158Z,59.21
2022-10-17T15:33:53.837Z,59.29
2022-10-17T15:36:51.998Z,59.36
2022-10-17T15:39:42.413Z,59.35
2022-10-17T15:42:32.581Z,59.43
2022-10-17T15:45:23.086Z,59.41
2022-10-17T15:48:22.694Z,59.39
2022-10-17T15:51:13.236Z,59.42
2022-10-17T15:54:05.361Z,59.32
2022-10-17T15:56:55.785Z,59.33
2022-10-17T15:59:49.865Z,59.50
2022-10-17T16:02:40.252Z,59.45
2022-10-17T16:05:30.618Z,59.50
2022-10-17T16:08:21.024Z,59.34
2022-10-17T16:11:16.338Z,59.12
2022-10-17T16:14:08.035Z,59.19
2022-10-17T16:16:58.613Z,59.17
2022-10-17T16:19:48.726Z,59.27
2022-10-17T16:22:40.277Z,59.29
2022-10-17T16:25:31.503Z,59.33
2022-10-17T16:28:22.741Z,59.32
2022-10-17T16:31:21.448Z,59.36
2022-10-17T16:34:13.333Z,59.50
2022-10-17T16:37:03.770Z,59.68
2022-10-17T16:39:54.231Z,59.58
2022-10-17T16:42:44.355Z,59.65
2022-10-17T16:45:34.600Z,59.67
2022-10-17T16:48:29.625Z,59.83
2022-10-17T16:51:20.742Z,59.73
2022-10-17T16:54:10.921Z,59.77
2022-10-17T16:57:01.737Z,59.88
2022-10-17T16:59:52.138Z,59.96
2022-10-17T17:02:42.063Z,60.18
2022-10-17T17:05:32.136Z,60.12
2022-10-17T17:08:22.228Z,60.24
2022-10-17T17:11:13.913Z,60.52
2022-10-17T17:14:04.413Z,60.64
2022-10-17T17:16:54.933Z,60.76
2022-10-17T17:19:45.272Z,60.66
2022-10-17T17:22:35.619Z,60.78
2022-10-17T17:25:27.078Z,60.58
2022-10-17T17:28:17.507Z,60.70
2022-10-17T17:31:09.676Z,60.73
2022-10-17T17:34:00.379Z,60.78
2022-10-17T17:36:51.670Z,60.85
2022-10-17T17:39:43.266Z,60.89
2022-10-17T17:42:33.442Z,60.92
2022-10-17T17:45:23.605Z,60.91
2022-10-17T17:48:15.107Z,60.84
2022-10-17T17:51:06.696Z,60.92
2022-10-17T17:53:57.234Z,60.75
2022-10-17T17:56:47.855Z,60.78
2022-10-17T17:59:40.624Z,60.80
2022-10-17T18:02:31.224Z,61.00
2022-10-17T18:05:22.021Z,61.16
2022-10-17T18:08:12.311Z,61.00
2022-10-17T18:11:03.717Z,61.01
2022-10-17T18:13:56.707Z,61.01
2022-10-17T18:16:47.033Z,60.95
2022-10-17T18:19:37.692Z,61.04
2022-10-17T18:22:28.368Z,60.98
2022-10-17T18:25:18.962Z,61.00
2022-10-17T18:28:09.404Z,60.98
2022-10-17T18:31:14.655Z,60.99
2022-10-17T18:34:05.670Z,60.99
2022-10-17T18:36:59.375Z,60.99
2022-10-17T18:39:52.206Z,60.99
2022-10-17T18:42:44.752Z,61.01
2022-10-17T18:45:40.058Z,61.04
2022-10-17T18:48:30.664Z,60.97
2022-10-17T18:51:24.604Z,60.98
2022-10-17T18:54:19.963Z,61.00
2022-10-17T18:57:11.375Z,60.96
2022-10-17T19:00:10.282Z,60.97
2022-10-17T19:03:02.407Z,60.97
2022-10-17T19:05:54.869Z,61.00
2022-10-17T19:08:52.749Z,60.97
2022-10-17T19:11:50.251Z,61.21
2022-10-17T19:14:44.928Z,60.92
2022-10-17T19:17:35.480Z,60.84
2022-10-17T19:20:29.207Z,60.73
2022-10-17T19:23:19.579Z,60.70
2022-10-17T19:26:12.395Z,60.79
2022-10-17T19:29:05.331Z,60.74
2022-10-17T19:32:00.675Z,61.32
2022-10-17T19:39:33.603Z,61.47
2022-10-17T19:42:30.424Z,61.32
2022-10-17T19:45:21.167Z,61.45
2022-10-17T19:48:11.446Z,62.18
2022-10-17T19:51:03.458Z,68.56
2022-10-17T19:53:54.819Z,68.76
2022-10-17T19:56:45.130Z,60.14
2022-10-17T19:59:35.543Z,55.64
2022-10-17T20:02:26.029Z,55.40
2022-10-17T20:05:19.254Z,55.72
2022-10-17T20:08:10.495Z,56.20
2022-10-17T20:11:13.366Z,56.62
2022-10-17T20:14:03.960Z,56.94
2022-10-17T20:16:55.719Z,57.79
2022-10-17T20:19:46.602Z,58.38
2022-10-17T20:22:37.136Z,58.61
2022-10-17T20:25:27.717Z,58.58
2022-10-17T20:28:18.150Z,58.67
2022-10-17T20:31:08.597Z,58.85
2022-10-17T20:33:59.670Z,58.94
2022-10-17T20:36:50.189Z,59.10
2022-10-17T20:39:40.705Z,59.16
2022-10-17T20:42:31.420Z,59.27
2022-10-17T20:45:37.279Z,59.42
2022-10-17T20:48:33.311Z,59.45
2022-10-17T20:51:23.984Z,59.63
2022-10-17T20:54:14.453Z,59.78
2022-10-17T20:57:05.517Z,59.82
2022-10-17T20:59:58.401Z,59.82
2022-10-17T21:02:49.131Z,60.07
2022-10-17T21:05:42.694Z,60.05
2022-10-17T21:08:33.217Z,60.09
2022-10-17T21:11:27.495Z,60.10
2022-10-17T21:14:17.654Z,60.27
2022-10-17T21:17:08.143Z,60.31
2022-10-17T21:19:58.482Z,60.42
2022-10-17T21:22:48.773Z,60.58
2022-10-17T21:25:40.777Z,60.57
2022-10-17T21:28:32.023Z,60.68
2022-10-17T21:31:23.573Z,60.75
2022-10-17T21:34:16.946Z,60.90
2022-10-17T21:37:07.570Z,60.85
2022-10-17T21:39:57.608Z,60.91
2022-10-17T21:42:47.663Z,60.95
2022-10-17T21:45:38.649Z,60.95
2022-10-17T21:48:28.627Z,60.88
2022-10-17T21:51:20.777Z,60.95
2022-10-17T21:54:10.909Z,60.94
2022-10-17T21:57:00.950Z,61.08
2022-10-17T21:59:51.210Z,61.19
2022-10-17T22:02:41.141Z,61.10
2022-10-17T22:05:32.193Z,61.14
2022-10-17T22:08:22.213Z,61.10
2022-10-17T22:11:13.909Z,61.19
2022-10-17T22:14:05.490Z,61.22
2022-10-17T22:16:55.613Z,61.23
2022-10-17T22:19:45.640Z,61.17
2022-10-17T22:22:35.759Z,61.18
2022-10-17T22:25:25.708Z,61.33
2022-10-17T22:28:15.602Z,61.29
2022-10-17T22:31:05.919Z,61.26
2022-10-17T22:33:56.367Z,61.34
2022-10-17T22:36:48.292Z,61.34
2022-10-17T22:39:38.425Z,61.41
2022-10-17T22:42:30.833Z,61.23
2022-10-17T22:45:20.835Z,61.33
2022-10-17T22:48:10.870Z,61.36
2022-10-17T22:51:01.080Z,61.42
2022-10-17T22:53:51.240Z,61.40
2022-10-17T22:56:41.286Z,61.34
2022-10-17T22:59:31.393Z,61.32
2022-10-17T23:02:21.774Z,61.40
2022-10-17T23:05:11.845Z,61.39
2022-10-17T23:08:01.784Z,61.43
2022-10-17T23:10:51.828Z,61.43
2022-10-17T23:13:41.837Z,61.44
2022-10-17T23:16:31.861Z,61.44
2022-10-17T23:19:22.154Z,61.44
2022-10-17T23:22:12.152Z,61.43
2022-10-17T23:25:02.626Z,61.42
2022-10-17T23:27:52.660Z,61.47
2022-10-17T23:30:42.717Z,61.40
2022-10-17T23:33:32.800Z,61.43
2022-10-17T23:36:22.929Z,61.39
2022-10-17T23:39:13.054Z,61.45
2022-10-17T23:42:03.081Z,61.42
2022-10-17T23:44:53.697Z,61.40
2022-10-17T23:47:43.676Z,61.45
2022-10-17T23:50:33.673Z,61.48
2022-10-17T23:53:23.797Z,61.43
2022-10-17T23:56:13.981Z,61.48
2022-10-17T23:59:04.033Z,61.52
